sensor_id;sensor_type;location;lat;lon;timestamp;temperature;humidity
60495;DHT22;46342;49.046;11.920;2023-12-20T00:01:47;6.30;68.80
60495;DHT22;46342;49.046;11.920;2023-12-20T00:04:12;6.30;69.60
60495;DHT22;46342;49.046;11.920;2023-12-20T00:06:38;6.40;68.90
60495;DHT22;46342;49.046;11.920;2023-12-20T00:09:03;6.40;68.80
60495;DHT22;46342;49.046;11.920;2023-12-20T00:11:29;6.40;68.80
60495;DHT22;46342;49.046;11.920;2023-12-20T00:13:54;6.30;68.70
60495;DHT22;46342;49.046;11.920;2023-12-20T00:16:20;6.40;69.10
60495;DHT22;46342;49.046;11.920;2023-12-20T00:18:45;6.40;68.70
60495;DHT22;46342;49.046;11.920;2023-12-20T00:21:11;6.40;68.70
60495;DHT22;46342;49.046;11.920;2023-12-20T00:23:37;6.40;68.70
60495;DHT22;46342;49.046;11.920;2023-12-20T00:26:02;6.40;68.70
60495;DHT22;46342;49.046;11.920;2023-12-20T00:28:28;6.40;68.70
60495;DHT22;46342;49.046;11.920;2023-12-20T00:30:53;6.40;68.70
60495;DHT22;46342;49.046;11.920;2023-12-20T00:33:19;6.40;68.70
60495;DHT22;46342;49.046;11.920;2023-12-20T00:35:44;6.40;68.80
60495;DHT22;46342;49.046;11.920;2023-12-20T00:38:10;6.40;68.90
60495;DHT22;46342;49.046;11.920;2023-12-20T00:40:36;6.50;69.00
60495;DHT22;46342;49.046;11.920;2023-12-20T00:43:02;6.50;69.00
60495;DHT22;46342;49.046;11.920;2023-12-20T00:45:28;6.50;69.00
60495;DHT22;46342;49.046;11.920;2023-12-20T00:47:53;6.50;69.00
60495;DHT22;46342;49.046;11.920;2023-12-20T00:50:19;6.50;69.10
60495;DHT22;46342;49.046;11.920;2023-12-20T00:52:46;6.50;69.10
60495;DHT22;46342;49.046;11.920;2023-12-20T00:55:11;6.50;69.10
60495;DHT22;46342;49.046;11.920;2023-12-20T00:57:37;6.50;69.20
60495;DHT22;46342;49.046;11.920;2023-12-20T01:00:03;6.50;69.20
60495;DHT22;46342;49.046;11.920;2023-12-20T01:02:28;6.50;69.20
60495;DHT22;46342;49.046;11.920;2023-12-20T01:04:54;6.50;69.20
60495;DHT22;46342;49.046;11.920;2023-12-20T01:07:20;6.50;69.30
60495;DHT22;46342;49.046;11.920;2023-12-20T01:09:45;6.50;69.40
60495;DHT22;46342;49.046;11.920;2023-12-20T01:12:11;6.50;69.40
60495;DHT22;46342;49.046;11.920;2023-12-20T01:14:36;6.60;69.50
60495;DHT22;46342;49.046;11.920;2023-12-20T01:17:02;6.60;69.60
60495;DHT22;46342;49.046;11.920;2023-12-20T01:19:27;6.60;69.60
60495;DHT22;46342;49.046;11.920;2023-12-20T01:21:54;6.60;69.60
60495;DHT22;46342;49.046;11.920;2023-12-20T01:24:20;6.60;69.60
60495;DHT22;46342;49.046;11.920;2023-12-20T01:26:46;6.60;69.70
60495;DHT22;46342;49.046;11.920;2023-12-20T01:29:11;6.60;69.70
60495;DHT22;46342;49.046;11.920;2023-12-20T01:31:38;6.60;69.70
60495;DHT22;46342;49.046;11.920;2023-12-20T01:34:03;6.60;69.70
60495;DHT22;46342;49.046;11.920;2023-12-20T01:36:29;6.60;69.70
60495;DHT22;46342;49.046;11.920;2023-12-20T01:38:54;6.60;69.80
60495;DHT22;46342;49.046;11.920;2023-12-20T01:41:20;6.60;69.90
60495;DHT22;46342;49.046;11.920;2023-12-20T01:43:45;6.50;69.80
60495;DHT22;46342;49.046;11.920;2023-12-20T01:46:12;6.60;70.00
60495;DHT22;46342;49.046;11.920;2023-12-20T01:48:37;6.60;70.00
60495;DHT22;46342;49.046;11.920;2023-12-20T01:51:04;6.60;70.00
60495;DHT22;46342;49.046;11.920;2023-12-20T01:53:30;6.60;70.00
60495;DHT22;46342;49.046;11.920;2023-12-20T01:55:58;6.60;70.00
60495;DHT22;46342;49.046;11.920;2023-12-20T01:58:24;6.60;70.10
60495;DHT22;46342;49.046;11.920;2023-12-20T02:00:50;6.60;70.10
60495;DHT22;46342;49.046;11.920;2023-12-20T02:03:16;6.50;70.00
60495;DHT22;46342;49.046;11.920;2023-12-20T02:05:43;6.50;70.00
60495;DHT22;46342;49.046;11.920;2023-12-20T02:08:09;6.50;70.10
60495;DHT22;46342;49.046;11.920;2023-12-20T02:10:35;6.50;70.10
60495;DHT22;46342;49.046;11.920;2023-12-20T02:13:01;6.50;70.10
60495;DHT22;46342;49.046;11.920;2023-12-20T02:15:26;6.50;70.10
60495;DHT22;46342;49.046;11.920;2023-12-20T02:17:52;6.50;70.10
60495;DHT22;46342;49.046;11.920;2023-12-20T02:20:18;6.50;70.10
60495;DHT22;46342;49.046;11.920;2023-12-20T02:22:44;6.50;70.20
60495;DHT22;46342;49.046;11.920;2023-12-20T02:25:09;6.50;70.20
60495;DHT22;46342;49.046;11.920;2023-12-20T02:27:35;6.50;70.20
60495;DHT22;46342;49.046;11.920;2023-12-20T02:30:01;6.50;70.20
60495;DHT22;46342;49.046;11.920;2023-12-20T02:32:27;6.50;70.30
60495;DHT22;46342;49.046;11.920;2023-12-20T02:34:54;6.50;70.30
60495;DHT22;46342;49.046;11.920;2023-12-20T02:37:20;6.50;71.30
60495;DHT22;46342;49.046;11.920;2023-12-20T02:39:45;6.50;70.40
60495;DHT22;46342;49.046;11.920;2023-12-20T02:42:11;6.50;70.40
60495;DHT22;46342;49.046;11.920;2023-12-20T02:44:37;6.50;70.50
60495;DHT22;46342;49.046;11.920;2023-12-20T02:47:03;6.50;70.50
60495;DHT22;46342;49.046;11.920;2023-12-20T02:49:28;6.50;70.60
60495;DHT22;46342;49.046;11.920;2023-12-20T02:51:54;6.50;70.50
60495;DHT22;46342;49.046;11.920;2023-12-20T02:54:19;6.50;70.50
60495;DHT22;46342;49.046;11.920;2023-12-20T02:56:45;6.60;70.70
60495;DHT22;46342;49.046;11.920;2023-12-20T02:59:10;6.60;70.70
60495;DHT22;46342;49.046;11.920;2023-12-20T03:01:44;6.60;70.70
60495;DHT22;46342;49.046;11.920;2023-12-20T03:04:11;6.60;70.90
60495;DHT22;46342;49.046;11.920;2023-12-20T03:06:36;6.60;70.80
60495;DHT22;46342;49.046;11.920;2023-12-20T03:09:02;6.60;70.80
60495;DHT22;46342;49.046;11.920;2023-12-20T03:11:28;6.60;70.80
60495;DHT22;46342;49.046;11.920;2023-12-20T03:13:54;6.70;71.90
60495;DHT22;46342;49.046;11.920;2023-12-20T03:16:20;6.60;70.80
60495;DHT22;46342;49.046;11.920;2023-12-20T03:18:45;6.60;70.90
60495;DHT22;46342;49.046;11.920;2023-12-20T03:21:11;6.60;70.90
60495;DHT22;46342;49.046;11.920;2023-12-20T03:23:37;6.60;70.90
60495;DHT22;46342;49.046;11.920;2023-12-20T03:26:02;6.70;71.00
60495;DHT22;46342;49.046;11.920;2023-12-20T03:28:29;6.70;71.00
60495;DHT22;46342;49.046;11.920;2023-12-20T03:30:54;6.70;71.00
60495;DHT22;46342;49.046;11.920;2023-12-20T03:33:20;6.70;71.00
60495;DHT22;46342;49.046;11.920;2023-12-20T03:35:45;6.70;71.00
60495;DHT22;46342;49.046;11.920;2023-12-20T03:38:11;6.70;71.00
60495;DHT22;46342;49.046;11.920;2023-12-20T03:40:37;6.70;71.10
60495;DHT22;46342;49.046;11.920;2023-12-20T03:43:02;6.70;71.00
60495;DHT22;46342;49.046;11.920;2023-12-20T03:45:28;6.70;71.00
60495;DHT22;46342;49.046;11.920;2023-12-20T03:47:53;6.70;71.00
60495;DHT22;46342;49.046;11.920;2023-12-20T03:50:22;6.70;71.00
60495;DHT22;46342;49.046;11.920;2023-12-20T03:52:48;6.70;71.00
60495;DHT22;46342;49.046;11.920;2023-12-20T03:55:14;6.70;71.00
60495;DHT22;46342;49.046;11.920;2023-12-20T03:57:40;6.70;71.20
60495;DHT22;46342;49.046;11.920;2023-12-20T04:00:07;6.70;71.50
60495;DHT22;46342;49.046;11.920;2023-12-20T04:02:36;6.70;71.30
60495;DHT22;46342;49.046;11.920;2023-12-20T04:05:02;6.80;71.30
60495;DHT22;46342;49.046;11.920;2023-12-20T04:07:27;6.80;71.30
60495;DHT22;46342;49.046;11.920;2023-12-20T04:09:53;6.80;71.30
60495;DHT22;46342;49.046;11.920;2023-12-20T04:12:18;6.80;71.40
60495;DHT22;46342;49.046;11.920;2023-12-20T04:14:44;6.70;71.30
60495;DHT22;46342;49.046;11.920;2023-12-20T04:17:09;6.80;71.30
60495;DHT22;46342;49.046;11.920;2023-12-20T04:19:35;6.80;71.30
60495;DHT22;46342;49.046;11.920;2023-12-20T04:22:00;6.80;71.40
60495;DHT22;46342;49.046;11.920;2023-12-20T04:24:26;6.80;71.40
60495;DHT22;46342;49.046;11.920;2023-12-20T04:26:51;6.80;71.40
60495;DHT22;46342;49.046;11.920;2023-12-20T04:29:17;6.80;71.40
60495;DHT22;46342;49.046;11.920;2023-12-20T04:31:42;6.80;71.50
60495;DHT22;46342;49.046;11.920;2023-12-20T04:34:08;6.80;71.50
60495;DHT22;46342;49.046;11.920;2023-12-20T04:36:34;6.80;71.50
60495;DHT22;46342;49.046;11.920;2023-12-20T04:39:00;6.80;71.50
60495;DHT22;46342;49.046;11.920;2023-12-20T04:41:25;6.80;71.50
60495;DHT22;46342;49.046;11.920;2023-12-20T04:43:53;6.80;71.50
60495;DHT22;46342;49.046;11.920;2023-12-20T04:46:18;6.80;71.50
60495;DHT22;46342;49.046;11.920;2023-12-20T04:48:44;6.80;71.50
60495;DHT22;46342;49.046;11.920;2023-12-20T04:51:09;6.80;72.40
60495;DHT22;46342;49.046;11.920;2023-12-20T04:53:35;6.80;71.50
60495;DHT22;46342;49.046;11.920;2023-12-20T04:56:00;6.80;72.50
60495;DHT22;46342;49.046;11.920;2023-12-20T04:58:26;6.80;71.60
60495;DHT22;46342;49.046;11.920;2023-12-20T05:00:51;6.80;71.60
60495;DHT22;46342;49.046;11.920;2023-12-20T05:03:17;6.80;71.70
60495;DHT22;46342;49.046;11.920;2023-12-20T05:05:43;6.80;71.70
60495;DHT22;46342;49.046;11.920;2023-12-20T05:08:08;6.80;71.60
60495;DHT22;46342;49.046;11.920;2023-12-20T05:10:34;6.80;71.50
60495;DHT22;46342;49.046;11.920;2023-12-20T05:13:00;6.80;71.60
60495;DHT22;46342;49.046;11.920;2023-12-20T05:15:26;6.80;71.60
60495;DHT22;46342;49.046;11.920;2023-12-20T05:17:51;6.80;71.60
60495;DHT22;46342;49.046;11.920;2023-12-20T05:20:17;6.80;72.60
60495;DHT22;46342;49.046;11.920;2023-12-20T05:22:42;6.80;71.70
60495;DHT22;46342;49.046;11.920;2023-12-20T05:25:08;6.80;71.70
60495;DHT22;46342;49.046;11.920;2023-12-20T05:27:34;6.80;71.70
60495;DHT22;46342;49.046;11.920;2023-12-20T05:29:59;6.80;71.70
60495;DHT22;46342;49.046;11.920;2023-12-20T05:32:25;6.80;71.70
60495;DHT22;46342;49.046;11.920;2023-12-20T05:34:51;6.80;71.70
60495;DHT22;46342;49.046;11.920;2023-12-20T05:37:16;6.90;71.80
60495;DHT22;46342;49.046;11.920;2023-12-20T05:39:42;6.80;71.70
60495;DHT22;46342;49.046;11.920;2023-12-20T05:42:07;6.90;72.00
60495;DHT22;46342;49.046;11.920;2023-12-20T05:44:33;6.90;71.80
60495;DHT22;46342;49.046;11.920;2023-12-20T05:46:58;6.90;71.80
60495;DHT22;46342;49.046;11.920;2023-12-20T05:49:24;6.90;71.90
60495;DHT22;46342;49.046;11.920;2023-12-20T05:51:49;6.90;71.90
60495;DHT22;46342;49.046;11.920;2023-12-20T05:54:16;6.90;71.80
60495;DHT22;46342;49.046;11.920;2023-12-20T05:56:42;6.90;71.80
60495;DHT22;46342;49.046;11.920;2023-12-20T05:59:07;6.90;71.80
60495;DHT22;46342;49.046;11.920;2023-12-20T06:01:33;6.90;71.90
60495;DHT22;46342;49.046;11.920;2023-12-20T06:03:59;6.90;71.90
60495;DHT22;46342;49.046;11.920;2023-12-20T06:06:24;6.80;71.80
60495;DHT22;46342;49.046;11.920;2023-12-20T06:08:50;6.90;72.80
60495;DHT22;46342;49.046;11.920;2023-12-20T06:11:15;6.90;72.00
60495;DHT22;46342;49.046;11.920;2023-12-20T06:13:41;6.90;71.90
60495;DHT22;46342;49.046;11.920;2023-12-20T06:16:07;6.90;71.90
60495;DHT22;46342;49.046;11.920;2023-12-20T06:18:32;6.90;72.00
60495;DHT22;46342;49.046;11.920;2023-12-20T06:20:58;6.90;72.00
60495;DHT22;46342;49.046;11.920;2023-12-20T06:23:23;6.90;72.00
60495;DHT22;46342;49.046;11.920;2023-12-20T06:25:49;6.90;72.10
60495;DHT22;46342;49.046;11.920;2023-12-20T06:28:15;6.90;72.20
60495;DHT22;46342;49.046;11.920;2023-12-20T06:30:41;6.90;72.20
60495;DHT22;46342;49.046;11.920;2023-12-20T06:33:06;6.90;72.10
60495;DHT22;46342;49.046;11.920;2023-12-20T06:35:32;6.90;72.10
60495;DHT22;46342;49.046;11.920;2023-12-20T06:37:58;6.90;72.00
60495;DHT22;46342;49.046;11.920;2023-12-20T06:40:23;6.90;72.00
60495;DHT22;46342;49.046;11.920;2023-12-20T06:42:49;6.90;71.90
60495;DHT22;46342;49.046;11.920;2023-12-20T06:45:14;6.90;71.90
60495;DHT22;46342;49.046;11.920;2023-12-20T06:47:40;7.00;72.00
60495;DHT22;46342;49.046;11.920;2023-12-20T06:50:06;7.00;72.90
60495;DHT22;46342;49.046;11.920;2023-12-20T06:52:33;7.00;71.90
60495;DHT22;46342;49.046;11.920;2023-12-20T06:54:59;7.00;71.90
60495;DHT22;46342;49.046;11.920;2023-12-20T06:57:25;6.90;71.80
60495;DHT22;46342;49.046;11.920;2023-12-20T06:59:52;6.90;71.80
60495;DHT22;46342;49.046;11.920;2023-12-20T07:02:18;6.90;71.80
60495;DHT22;46342;49.046;11.920;2023-12-20T07:04:44;6.90;71.70
60495;DHT22;46342;49.046;11.920;2023-12-20T07:07:09;6.90;72.70
60495;DHT22;46342;49.046;11.920;2023-12-20T07:09:35;6.90;71.70
60495;DHT22;46342;49.046;11.920;2023-12-20T07:12:00;6.90;71.70
60495;DHT22;46342;49.046;11.920;2023-12-20T07:14:26;6.90;71.70
60495;DHT22;46342;49.046;11.920;2023-12-20T07:16:51;6.90;71.70
60495;DHT22;46342;49.046;11.920;2023-12-20T07:19:17;6.90;71.70
60495;DHT22;46342;49.046;11.920;2023-12-20T07:21:43;6.90;72.60
60495;DHT22;46342;49.046;11.920;2023-12-20T07:24:09;6.90;71.70
60495;DHT22;46342;49.046;11.920;2023-12-20T07:26:35;6.90;72.60
60495;DHT22;46342;49.046;11.920;2023-12-20T07:29:00;6.90;71.70
60495;DHT22;46342;49.046;11.920;2023-12-20T07:31:26;6.90;71.80
60495;DHT22;46342;49.046;11.920;2023-12-20T07:33:51;6.90;71.80
60495;DHT22;46342;49.046;11.920;2023-12-20T07:36:17;6.80;71.70
60495;DHT22;46342;49.046;11.920;2023-12-20T07:38:43;6.80;71.70
60495;DHT22;46342;49.046;11.920;2023-12-20T07:41:12;6.80;71.70
60495;DHT22;46342;49.046;11.920;2023-12-20T07:43:38;6.80;71.80
60495;DHT22;46342;49.046;11.920;2023-12-20T07:46:05;6.80;71.70
60495;DHT22;46342;49.046;11.920;2023-12-20T07:48:31;6.80;71.80
60495;DHT22;46342;49.046;11.920;2023-12-20T07:50:56;6.80;71.80
60495;DHT22;46342;49.046;11.920;2023-12-20T07:53:22;6.80;71.80
60495;DHT22;46342;49.046;11.920;2023-12-20T07:55:47;6.80;71.90
60495;DHT22;46342;49.046;11.920;2023-12-20T07:58:13;6.80;71.90
60495;DHT22;46342;49.046;11.920;2023-12-20T08:00:38;6.80;71.90
60495;DHT22;46342;49.046;11.920;2023-12-20T08:03:04;6.80;71.90
60495;DHT22;46342;49.046;11.920;2023-12-20T08:05:30;6.80;72.00
60495;DHT22;46342;49.046;11.920;2023-12-20T08:07:55;6.80;72.00
60495;DHT22;46342;49.046;11.920;2023-12-20T08:10:21;6.80;72.10
60495;DHT22;46342;49.046;11.920;2023-12-20T08:12:46;6.80;72.10
60495;DHT22;46342;49.046;11.920;2023-12-20T08:15:12;6.80;72.10
60495;DHT22;46342;49.046;11.920;2023-12-20T08:17:37;6.90;72.30
60495;DHT22;46342;49.046;11.920;2023-12-20T08:20:03;6.80;73.10
60495;DHT22;46342;49.046;11.920;2023-12-20T08:22:30;6.90;72.20
60495;DHT22;46342;49.046;11.920;2023-12-20T08:24:55;6.90;72.20
60495;DHT22;46342;49.046;11.920;2023-12-20T08:27:21;6.90;72.20
60495;DHT22;46342;49.046;11.920;2023-12-20T08:29:46;6.90;72.20
60495;DHT22;46342;49.046;11.920;2023-12-20T08:32:12;6.90;72.30
60495;DHT22;46342;49.046;11.920;2023-12-20T08:34:38;6.90;72.30
60495;DHT22;46342;49.046;11.920;2023-12-20T08:37:03;6.90;72.40
60495;DHT22;46342;49.046;11.920;2023-12-20T08:39:29;6.90;72.40
60495;DHT22;46342;49.046;11.920;2023-12-20T08:41:55;6.90;72.50
60495;DHT22;46342;49.046;11.920;2023-12-20T08:44:20;6.90;72.50
60495;DHT22;46342;49.046;11.920;2023-12-20T08:46:47;6.90;72.50
60495;DHT22;46342;49.046;11.920;2023-12-20T08:49:13;6.90;72.50
60495;DHT22;46342;49.046;11.920;2023-12-20T08:51:39;6.90;73.40
60495;DHT22;46342;49.046;11.920;2023-12-20T08:54:06;6.90;72.50
60495;DHT22;46342;49.046;11.920;2023-12-20T08:56:33;7.00;72.70
60495;DHT22;46342;49.046;11.920;2023-12-20T08:58:59;6.90;72.60
60495;DHT22;46342;49.046;11.920;2023-12-20T09:01:24;7.00;72.70
60495;DHT22;46342;49.046;11.920;2023-12-20T09:03:50;7.00;72.70
60495;DHT22;46342;49.046;11.920;2023-12-20T09:06:16;7.00;72.70
60495;DHT22;46342;49.046;11.920;2023-12-20T09:08:41;7.00;72.80
60495;DHT22;46342;49.046;11.920;2023-12-20T09:11:07;7.00;72.80
60495;DHT22;46342;49.046;11.920;2023-12-20T09:13:32;7.00;72.80
60495;DHT22;46342;49.046;11.920;2023-12-20T09:15:58;7.00;72.80
60495;DHT22;46342;49.046;11.920;2023-12-20T09:18:24;7.10;73.00
60495;DHT22;46342;49.046;11.920;2023-12-20T09:20:50;7.10;73.00
60495;DHT22;46342;49.046;11.920;2023-12-20T09:23:15;7.10;73.20
60495;DHT22;46342;49.046;11.920;2023-12-20T09:25:41;7.10;73.00
60495;DHT22;46342;49.046;11.920;2023-12-20T09:28:06;7.10;74.00
60495;DHT22;46342;49.046;11.920;2023-12-20T09:30:32;7.10;73.90
60495;DHT22;46342;49.046;11.920;2023-12-20T09:32:57;7.10;73.10
60495;DHT22;46342;49.046;11.920;2023-12-20T09:35:23;7.20;73.20
60495;DHT22;46342;49.046;11.920;2023-12-20T09:37:49;7.20;73.30
60495;DHT22;46342;49.046;11.920;2023-12-20T09:40:18;7.20;73.30
60495;DHT22;46342;49.046;11.920;2023-12-20T09:42:56;7.20;73.30
60495;DHT22;46342;49.046;11.920;2023-12-20T09:45:22;7.30;73.60
60495;DHT22;46342;49.046;11.920;2023-12-20T09:47:52;7.20;73.20
60495;DHT22;46342;49.046;11.920;2023-12-20T09:50:19;7.30;73.50
60495;DHT22;46342;49.046;11.920;2023-12-20T09:52:52;7.30;73.30
60495;DHT22;46342;49.046;11.920;2023-12-20T09:55:19;7.30;73.40
60495;DHT22;46342;49.046;11.920;2023-12-20T09:57:46;7.30;73.20
60495;DHT22;46342;49.046;11.920;2023-12-20T10:00:12;7.30;73.30
60495;DHT22;46342;49.046;11.920;2023-12-20T10:02:50;7.40;73.40
60495;DHT22;46342;49.046;11.920;2023-12-20T10:05:17;7.40;73.50
60495;DHT22;46342;49.046;11.920;2023-12-20T10:07:45;7.40;73.40
60495;DHT22;46342;49.046;11.920;2023-12-20T10:10:13;7.40;73.40
60495;DHT22;46342;49.046;11.920;2023-12-20T10:12:39;7.50;73.60
60495;DHT22;46342;49.046;11.920;2023-12-20T10:15:05;7.50;73.70
60495;DHT22;46342;49.046;11.920;2023-12-20T10:17:31;7.50;73.80
60495;DHT22;46342;49.046;11.920;2023-12-20T10:19:57;7.60;73.90
60495;DHT22;46342;49.046;11.920;2023-12-20T10:22:23;7.60;73.70
60495;DHT22;46342;49.046;11.920;2023-12-20T10:24:49;7.60;73.60
60495;DHT22;46342;49.046;11.920;2023-12-20T10:27:15;7.60;73.40
60495;DHT22;46342;49.046;11.920;2023-12-20T10:29:44;7.70;73.30
60495;DHT22;46342;49.046;11.920;2023-12-20T10:32:27;7.70;73.10
60495;DHT22;46342;49.046;11.920;2023-12-20T10:34:54;7.70;72.70
60495;DHT22;46342;49.046;11.920;2023-12-20T10:37:20;7.70;72.70
60495;DHT22;46342;49.046;11.920;2023-12-20T10:39:53;7.70;72.50
60495;DHT22;46342;49.046;11.920;2023-12-20T10:42:22;7.70;72.30
60495;DHT22;46342;49.046;11.920;2023-12-20T10:44:49;7.70;72.40
60495;DHT22;46342;49.046;11.920;2023-12-20T10:47:15;7.70;72.40
60495;DHT22;46342;49.046;11.920;2023-12-20T10:49:41;7.70;72.50
60495;DHT22;46342;49.046;11.920;2023-12-20T10:52:09;7.80;72.60
60495;DHT22;46342;49.046;11.920;2023-12-20T10:54:35;7.80;72.40
60495;DHT22;46342;49.046;11.920;2023-12-20T10:57:03;7.80;72.30
60495;DHT22;46342;49.046;11.920;2023-12-20T10:59:33;7.80;72.00
60495;DHT22;46342;49.046;11.920;2023-12-20T11:01:59;7.80;71.90
60495;DHT22;46342;49.046;11.920;2023-12-20T11:04:35;7.80;72.00
60495;DHT22;46342;49.046;11.920;2023-12-20T11:07:43;7.80;71.80
60495;DHT22;46342;49.046;11.920;2023-12-20T11:12:53;7.90;71.20
60495;DHT22;46342;49.046;11.920;2023-12-20T11:15:20;7.90;71.00
60495;DHT22;46342;49.046;11.920;2023-12-20T11:17:47;7.90;71.40
60495;DHT22;46342;49.046;11.920;2023-12-20T11:20:23;7.90;71.50
60495;DHT22;46342;49.046;11.920;2023-12-20T11:22:55;7.90;71.20
60495;DHT22;46342;49.046;11.920;2023-12-20T11:25:21;7.90;70.70
60495;DHT22;46342;49.046;11.920;2023-12-20T11:28:08;7.90;71.20
60495;DHT22;46342;49.046;11.920;2023-12-20T11:30:48;8.00;70.70
60495;DHT22;46342;49.046;11.920;2023-12-20T11:33:15;8.00;70.80
60495;DHT22;46342;49.046;11.920;2023-12-20T11:35:42;8.00;71.00
60495;DHT22;46342;49.046;11.920;2023-12-20T11:38:09;8.00;71.00
60495;DHT22;46342;49.046;11.920;2023-12-20T11:40:36;8.00;70.80
60495;DHT22;46342;49.046;11.920;2023-12-20T11:43:02;8.00;71.10
60495;DHT22;46342;49.046;11.920;2023-12-20T11:45:28;8.10;72.10
60495;DHT22;46342;49.046;11.920;2023-12-20T11:47:54;8.10;71.30
60495;DHT22;46342;49.046;11.920;2023-12-20T11:50:23;8.10;71.20
60495;DHT22;46342;49.046;11.920;2023-12-20T11:52:51;8.20;69.60
60495;DHT22;46342;49.046;11.920;2023-12-20T11:55:17;8.20;70.90
60495;DHT22;46342;49.046;11.920;2023-12-20T11:57:43;8.30;70.90
60495;DHT22;46342;49.046;11.920;2023-12-20T12:00:10;8.30;71.10
60495;DHT22;46342;49.046;11.920;2023-12-20T12:02:36;8.30;71.00
60495;DHT22;46342;49.046;11.920;2023-12-20T12:05:02;8.40;70.70
60495;DHT22;46342;49.046;11.920;2023-12-20T12:07:30;8.40;70.30
60495;DHT22;46342;49.046;11.920;2023-12-20T12:09:56;8.40;69.80
60495;DHT22;46342;49.046;11.920;2023-12-20T12:12:21;8.40;69.60
60495;DHT22;46342;49.046;11.920;2023-12-20T12:14:48;8.40;69.00
60495;DHT22;46342;49.046;11.920;2023-12-20T12:17:14;8.40;68.80
60495;DHT22;46342;49.046;11.920;2023-12-20T12:19:41;8.40;68.70
60495;DHT22;46342;49.046;11.920;2023-12-20T12:22:11;8.40;68.80
60495;DHT22;46342;49.046;11.920;2023-12-20T12:24:41;8.40;68.40
60495;DHT22;46342;49.046;11.920;2023-12-20T12:27:07;8.30;68.20
60495;DHT22;46342;49.046;11.920;2023-12-20T12:29:33;8.30;68.30
60495;DHT22;46342;49.046;11.920;2023-12-20T12:32:00;8.30;68.30
60495;DHT22;46342;49.046;11.920;2023-12-20T12:34:28;8.20;68.10
60495;DHT22;46342;49.046;11.920;2023-12-20T12:36:54;8.20;67.70
60495;DHT22;46342;49.046;11.920;2023-12-20T12:39:20;8.20;68.90
60495;DHT22;46342;49.046;11.920;2023-12-20T12:41:46;8.20;68.20
60495;DHT22;46342;49.046;11.920;2023-12-20T12:44:11;8.10;68.10
60495;DHT22;46342;49.046;11.920;2023-12-20T12:46:37;8.20;68.40
60495;DHT22;46342;49.046;11.920;2023-12-20T12:49:03;8.10;68.30
60495;DHT22;46342;49.046;11.920;2023-12-20T12:51:29;8.10;68.40
60495;DHT22;46342;49.046;11.920;2023-12-20T12:53:54;8.10;68.20
60495;DHT22;46342;49.046;11.920;2023-12-20T12:56:20;8.10;68.20
60495;DHT22;46342;49.046;11.920;2023-12-20T12:58:47;8.10;68.30
60495;DHT22;46342;49.046;11.920;2023-12-20T13:01:13;8.10;68.30
60495;DHT22;46342;49.046;11.920;2023-12-20T13:03:39;8.10;68.40
60495;DHT22;46342;49.046;11.920;2023-12-20T13:06:05;8.10;68.50
60495;DHT22;46342;49.046;11.920;2023-12-20T13:08:31;8.00;68.40
60495;DHT22;46342;49.046;11.920;2023-12-20T13:10:57;8.00;68.30
60495;DHT22;46342;49.046;11.920;2023-12-20T13:13:26;8.00;69.30
60495;DHT22;46342;49.046;11.920;2023-12-20T13:15:52;8.00;69.40
60495;DHT22;46342;49.046;11.920;2023-12-20T13:18:23;8.00;68.50
60495;DHT22;46342;49.046;11.920;2023-12-20T13:20:49;8.10;67.40
60495;DHT22;46342;49.046;11.920;2023-12-20T13:23:15;8.00;68.10
60495;DHT22;46342;49.046;11.920;2023-12-20T13:25:41;8.00;68.20
60495;DHT22;46342;49.046;11.920;2023-12-20T13:28:07;8.00;68.20
60495;DHT22;46342;49.046;11.920;2023-12-20T13:30:33;8.00;68.40
60495;DHT22;46342;49.046;11.920;2023-12-20T13:32:59;8.00;68.20
60495;DHT22;46342;49.046;11.920;2023-12-20T13:35:25;8.00;68.10
60495;DHT22;46342;49.046;11.920;2023-12-20T13:37:50;8.00;67.80
60495;DHT22;46342;49.046;11.920;2023-12-20T13:40:16;7.90;67.90
60495;DHT22;46342;49.046;11.920;2023-12-20T13:42:41;8.00;68.30
60495;DHT22;46342;49.046;11.920;2023-12-20T13:45:07;8.00;68.30
60495;DHT22;46342;49.046;11.920;2023-12-20T13:47:33;8.00;68.50
60495;DHT22;46342;49.046;11.920;2023-12-20T13:49:59;8.00;68.70
60495;DHT22;46342;49.046;11.920;2023-12-20T13:52:25;8.00;68.70
60495;DHT22;46342;49.046;11.920;2023-12-20T13:54:50;8.00;68.40
60495;DHT22;46342;49.046;11.920;2023-12-20T13:57:16;8.00;68.50
60495;DHT22;46342;49.046;11.920;2023-12-20T13:59:41;8.00;68.40
60495;DHT22;46342;49.046;11.920;2023-12-20T14:02:07;8.00;68.30
60495;DHT22;46342;49.046;11.920;2023-12-20T14:04:33;8.00;67.90
60495;DHT22;46342;49.046;11.920;2023-12-20T14:06:58;8.00;67.90
60495;DHT22;46342;49.046;11.920;2023-12-20T14:09:24;8.00;67.90
60495;DHT22;46342;49.046;11.920;2023-12-20T14:11:50;8.00;68.00
60495;DHT22;46342;49.046;11.920;2023-12-20T14:14:16;8.00;67.90
60495;DHT22;46342;49.046;11.920;2023-12-20T14:16:41;8.00;67.70
60495;DHT22;46342;49.046;11.920;2023-12-20T14:19:10;7.90;68.50
60495;DHT22;46342;49.046;11.920;2023-12-20T14:21:36;7.90;67.60
60495;DHT22;46342;49.046;11.920;2023-12-20T14:24:01;7.90;68.50
60495;DHT22;46342;49.046;11.920;2023-12-20T14:26:29;7.80;67.40
60495;DHT22;46342;49.046;11.920;2023-12-20T14:28:55;7.80;67.30
60495;DHT22;46342;49.046;11.920;2023-12-20T14:31:20;7.80;67.50
60495;DHT22;46342;49.046;11.920;2023-12-20T14:33:46;7.80;67.80
60495;DHT22;46342;49.046;11.920;2023-12-20T14:36:12;7.70;67.60
60495;DHT22;46342;49.046;11.920;2023-12-20T14:38:38;7.70;67.70
60495;DHT22;46342;49.046;11.920;2023-12-20T14:41:03;7.70;67.80
60495;DHT22;46342;49.046;11.920;2023-12-20T14:43:31;7.70;67.80
60495;DHT22;46342;49.046;11.920;2023-12-20T14:45:56;7.70;67.80
60495;DHT22;46342;49.046;11.920;2023-12-20T14:48:22;7.60;67.80
60495;DHT22;46342;49.046;11.920;2023-12-20T14:50:47;7.70;67.90
60495;DHT22;46342;49.046;11.920;2023-12-20T14:53:14;7.60;67.80
60495;DHT22;46342;49.046;11.920;2023-12-20T14:55:44;7.60;67.80
60495;DHT22;46342;49.046;11.920;2023-12-20T14:58:09;7.60;67.90
60495;DHT22;46342;49.046;11.920;2023-12-20T15:00:35;7.60;67.80
60495;DHT22;46342;49.046;11.920;2023-12-20T15:03:00;7.50;67.70
60495;DHT22;46342;49.046;11.920;2023-12-20T15:05:26;7.50;67.60
60495;DHT22;46342;49.046;11.920;2023-12-20T15:07:52;7.50;67.60
60495;DHT22;46342;49.046;11.920;2023-12-20T15:10:18;7.50;67.60
60495;DHT22;46342;49.046;11.920;2023-12-20T15:12:44;7.50;67.60
60495;DHT22;46342;49.046;11.920;2023-12-20T15:15:11;7.50;67.60
60495;DHT22;46342;49.046;11.920;2023-12-20T15:17:37;7.50;67.50
60495;DHT22;46342;49.046;11.920;2023-12-20T15:20:03;7.50;67.40
60495;DHT22;46342;49.046;11.920;2023-12-20T15:22:30;7.40;67.20
60495;DHT22;46342;49.046;11.920;2023-12-20T15:24:55;7.40;67.30
60495;DHT22;46342;49.046;11.920;2023-12-20T15:27:21;7.40;67.40